메인 페이지
METAR-TAF:

METAR-TAF

공항 :

브리지포트, 코네티컷, 미국

위도: 41-09-30N, 경도: 073-07-44W, 고도: 3m

현재 날씨관측

예보는 1 시간 5분 전, 01:52시(UTC)에 발표되었습니다.
동북동10kt
온도 6°C
습도 87%
기압 1010 hPa
시정: 16.1km
고도 800ft 상공 구름 많음
고도 2100ft 상공 흐림

METAR: KBDR 270152Z 07010KT 10SM BKN008 OVC021 06/04 A2983 RMK AO2 CIG 006V011 SLP101 T00610044

시각: 21:57 (02:57 UTC)

예보

예보는 46분 전, 02:11시(UTC)에 발표되었습니다.
예보 대상 시간: 27일 02시부터 27일 24시까지 (UTC)
10kt
시정: 10km
고도 900ft 상공 흐림
27일 0400시부터 (UTC)
동북동10kt
시정: 4.8km
고도 700ft 상공 흐림
약한비, 이슬비, 박무
27일 0700시부터 (UTC)
13kt, 순간 최대 풍속 20kt
시정: 1.6km
고도 500ft 상공 흐림
소나기, 박무
27일 0900시부터 (UTC)
14kt, 순간 최대 풍속 23kt
시정: 1.6km
고도 500ft 상공 흐림
소나기, 박무
27일 1100시부터 (UTC)
남남서14kt, 순간 최대 풍속 24kt
시정: 9.7km
고도 3000ft 상공 구름 많음
박무, 시계 내 소나기
27일 1300시부터 (UTC)
16kt, 순간 최대 풍속 25kt
시정: 10km
고도 5000ft 상공 구름 보통
27일 1600시부터 (UTC)
20kt, 순간 최대 풍속 33kt
시정: 10km
고도 5000ft 상공 구름 보통

TAF: KBDR 270211Z 2702/2724 08010KT P6SM OVC009 FM270400 07010KT 3SM -RADZ BR OVC007 FM270700 08013G20KT 1SM SHRA BR OVC005 FM270900 10014G23KT 1SM SHRA BR OVC005 FM271100 20014G24KT 6SM BR VCSH BKN030 FM271300 26016G25KT P6SM SCT050 FM271600 28020G33KT P6SM SCT050

4,000개 이상의 공항 관측 자료 및 예보 (METAR 및 TAF 보고).

지도상에서 검색 가능한 기상관측소가 노란 점과 빨간 점으로 표시되어 있습니다.

기상관측소 명을 보려면 표시 위로 마우스를 이동하세요.

날씨 관측과 예보를 보려면 클릭하세요.

지도 변경 : 확대하려면 엑스 표시가 있는 녹색 버튼, 축소하려면 빼기 표시가 있는 녹색 버튼, 다음 페이지의 지도를 보려면 녹색 화살표를 클릭하세요.


METAR-TAF: